This is the latest recevied weather packets stored in our database for station/object OK2ZI. If no packets are shown the sender has not sent any weather packets the latest 10 day(s).
| Time | Temp. | Humidity | Pressure | Rain* | Wind** | Luminosity | Snow |
|---|---|---|---|---|---|---|---|
| 1777538167 | 8.33° C | 35% | 1027 hPa | 0 mm | - | - | - |
| 1777537927 | 7.78° C | 35% | 1027 hPa | 0 mm | - | - | - |
| 1777537447 | 8.33° C | 36% | 1027 hPa | 0 mm | - | - | - |
| 1777536125 | 7.78° C | 38% | 1027 hPa | 0 mm | - | - | - |
| 1777535646 | 7.22° C | 37% | 1027 hPa | 0 mm | - | - | - |
| 1777534326 | 7.22° C | 39% | 1027 hPa | 0 mm | - | - | - |
| 1777533384 | 6.11° C | 42% | 1027 hPa | 0 mm | - | - | - |
| 1777533127 | 6.11° C | 43% | 1027 hPa | 0 mm | - | - | - |
| 1777531812 | 5.56° C | 43% | 1027 hPa | 0 mm | - | - | - |
| 1777530125 | 4.44° C | 49% | 1027 hPa | 0 mm | - | - | - |
| 1777527487 | 3.33° C | 51% | 1027 hPa | 0 mm | - | - | - |
| 1777527247 | 3.33° C | 51% | 1027 hPa | 0 mm | - | - | - |
| 1777527015 | 2.78° C | 51% | 1027 hPa | 0 mm | - | - | - |
| 1777526412 | 1.67° C | 55% | 1027 hPa | 0 mm | - | - | - |
| 1777526167 | 1.67° C | 56% | 1027 hPa | 0 mm | - | - | - |
| 1777525325 | 0.56° C | 59% | 1026 hPa | 0 mm | - | - | - |
| 1777524965 | 0° C | 62% | 1027 hPa | 0 mm | - | - | - |
| 1777523527 | -1.67° C | 68% | 1026 hPa | 0 mm | - | - | - |
| 1777523413 | -1.67° C | 68% | 1026 hPa | 0 mm | - | - | - |
| 1777523046 | -1.67° C | 66% | 1026 hPa | 0 mm | - | - | - |
| 1777522811 | -2.22° C | 68% | 1026 hPa | 0 mm | - | - | - |
| 1777521126 | -3.33° C | 72% | 1026 hPa | 0 mm | - | - | - |
| 1777519925 | -3.33° C | 72% | 1026 hPa | 0 mm | - | - | - |
| 1777518248 | -2.78° C | 69% | 1026 hPa | 0 mm | - | - | - |
| 1777517167 | -3.33° C | 70% | 1026 hPa | 0 mm | - | - | - |
* Rain latest hour (hover to see other rain measurements)
** Current wind speed in m/s (hover to see current wind gust speed)